New Orleans, Naval Air Station Joint Reserve Base New Orleans (KNBG)

NameNaval Air Station Joint Reserve Base New Orleans
CityNew Orleans
CountryUnited States
ICAOKNBG
IATANBG
Altitude1 m
CoordinatesGoogle Map
Live Air TrafficLiveATC.net
METARKNBG 231955Z 14004KT 10SM SCT030 BKN100 BKN250 29/24 A2998 RMK AO2 SLP152 T02940244 $
2019-08-23 19:55:00 Wind: Southeast (140°) 2.06 m/s - Visibility: 16093.4 m - Temperature: 29 °C - Dew point: 24 °C - Humidity: 74.5% - Pressure: 1015.24 hPa

Sorry, no flights used the airport in this database.